sensor_id;sensor_type;location;lat;lon;timestamp;temperature;humidity
42145;DHT22;27813;43.516;11.890;2023-04-16T04:35:20;9.80;93.40
42145;DHT22;27813;43.516;11.890;2023-04-16T04:39:25;9.90;93.50
42145;DHT22;27813;43.516;11.890;2023-04-16T04:43:29;9.90;93.50
42145;DHT22;27813;43.516;11.890;2023-04-16T04:47:35;9.90;93.30
42145;DHT22;27813;43.516;11.890;2023-04-16T04:51:39;9.90;93.30
42145;DHT22;27813;43.516;11.890;2023-04-16T04:55:44;9.90;93.30
42145;DHT22;27813;43.516;11.890;2023-04-16T04:59:48;9.90;93.30
42145;DHT22;27813;43.516;11.890;2023-04-16T05:03:53;9.90;93.50
42145;DHT22;27813;43.516;11.890;2023-04-16T05:07:57;10.00;93.60
42145;DHT22;27813;43.516;11.890;2023-04-16T05:12:02;10.00;93.50
42145;DHT22;27813;43.516;11.890;2023-04-16T05:16:06;10.10;93.50
42145;DHT22;27813;43.516;11.890;2023-04-16T05:20:11;10.10;93.50
42145;DHT22;27813;43.516;11.890;2023-04-16T05:24:18;10.10;93.30
42145;DHT22;27813;43.516;11.890;2023-04-16T05:28:22;10.30;92.90
42145;DHT22;27813;43.516;11.890;2023-04-16T05:32:26;10.30;92.60
42145;DHT22;27813;43.516;11.890;2023-04-16T05:36:36;10.40;92.60
42145;DHT22;27813;43.516;11.890;2023-04-16T05:40:42;10.40;92.50
42145;DHT22;27813;43.516;11.890;2023-04-16T05:44:50;10.50;92.10
42145;DHT22;27813;43.516;11.890;2023-04-16T05:49:11;10.60;92.00
42145;DHT22;27813;43.516;11.890;2023-04-16T05:53:19;10.80;92.00
42145;DHT22;27813;43.516;11.890;2023-04-16T05:57:27;11.00;91.30
42145;DHT22;27813;43.516;11.890;2023-04-16T06:01:37;11.20;91.00
42145;DHT22;27813;43.516;11.890;2023-04-16T06:05:50;11.30;89.90
42145;DHT22;27813;43.516;11.890;2023-04-16T06:09:54;11.50;89.40
42145;DHT22;27813;43.516;11.890;2023-04-16T06:14:00;11.80;88.90
42145;DHT22;27813;43.516;11.890;2023-04-16T06:18:09;12.00;88.20
42145;DHT22;27813;43.516;11.890;2023-04-16T06:22:16;12.30;86.70
42145;DHT22;27813;43.516;11.890;2023-04-16T06:26:19;12.40;84.70
42145;DHT22;27813;43.516;11.890;2023-04-16T06:30:32;12.50;83.40
42145;DHT22;27813;43.516;11.890;2023-04-16T06:34:37;12.50;81.70
42145;DHT22;27813;43.516;11.890;2023-04-16T06:38:44;12.40;82.10
42145;DHT22;27813;43.516;11.890;2023-04-16T06:42:48;12.80;83.00
42145;DHT22;27813;43.516;11.890;2023-04-16T06:46:52;13.40;81.00
42145;DHT22;27813;43.516;11.890;2023-04-16T06:51:01;13.40;79.60
42145;DHT22;27813;43.516;11.890;2023-04-16T06:55:11;13.10;79.70
42145;DHT22;27813;43.516;11.890;2023-04-16T06:59:18;13.00;80.00
42145;DHT22;27813;43.516;11.890;2023-04-16T07:03:22;12.90;79.10
42145;DHT22;27813;43.516;11.890;2023-04-16T07:07:29;13.00;78.70
42145;DHT22;27813;43.516;11.890;2023-04-16T07:11:33;13.00;78.30
42145;DHT22;27813;43.516;11.890;2023-04-16T07:15:38;13.20;78.50
42145;DHT22;27813;43.516;11.890;2023-04-16T07:19:42;13.50;78.60
42145;DHT22;27813;43.516;11.890;2023-04-16T07:23:46;13.70;77.60
42145;DHT22;27813;43.516;11.890;2023-04-16T07:27:50;13.70;77.20
42145;DHT22;27813;43.516;11.890;2023-04-16T07:31:54;13.70;77.00
42145;DHT22;27813;43.516;11.890;2023-04-16T07:42:30;13.50;77.10
42145;DHT22;27813;43.516;11.890;2023-04-16T07:46:34;13.50;76.70
42145;DHT22;27813;43.516;11.890;2023-04-16T07:50:48;13.60;76.80
42145;DHT22;27813;43.516;11.890;2023-04-16T07:54:53;13.70;76.20
42145;DHT22;27813;43.516;11.890;2023-04-16T07:58:57;13.80;75.30
42145;DHT22;27813;43.516;11.890;2023-04-16T08:03:21;13.80;74.70
42145;DHT22;27813;43.516;11.890;2023-04-16T08:07:51;14.00;74.60
42145;DHT22;27813;43.516;11.890;2023-04-16T08:12:02;14.00;74.10
42145;DHT22;27813;43.516;11.890;2023-04-16T08:16:15;14.00;73.10
42145;DHT22;27813;43.516;11.890;2023-04-16T08:20:19;14.10;72.70
42145;DHT22;27813;43.516;11.890;2023-04-16T08:24:25;14.10;73.00
42145;DHT22;27813;43.516;11.890;2023-04-16T08:28:29;14.40;73.00
42145;DHT22;27813;43.516;11.890;2023-04-16T08:32:33;14.40;71.00
42145;DHT22;27813;43.516;11.890;2023-04-16T08:36:39;14.50;71.40
42145;DHT22;27813;43.516;11.890;2023-04-16T08:40:45;14.80;71.20
42145;DHT22;27813;43.516;11.890;2023-04-16T08:44:55;14.80;70.30
42145;DHT22;27813;43.516;11.890;2023-04-16T08:49:14;14.90;70.10
42145;DHT22;27813;43.516;11.890;2023-04-16T08:53:31;15.00;69.70
42145;DHT22;27813;43.516;11.890;2023-04-16T08:57:57;15.10;69.70
42145;DHT22;27813;43.516;11.890;2023-04-16T09:02:02;15.30;69.70
42145;DHT22;27813;43.516;11.890;2023-04-16T09:06:09;15.50;68.90
42145;DHT22;27813;43.516;11.890;2023-04-16T09:10:14;15.70;68.70
42145;DHT22;27813;43.516;11.890;2023-04-16T09:14:19;15.90;68.00
42145;DHT22;27813;43.516;11.890;2023-04-16T09:18:46;15.90;68.40
42145;DHT22;27813;43.516;11.890;2023-04-16T09:22:59;16.30;69.20
42145;DHT22;27813;43.516;11.890;2023-04-16T09:27:04;16.70;69.00
42145;DHT22;27813;43.516;11.890;2023-04-16T09:31:20;17.00;67.00
42145;DHT22;27813;43.516;11.890;2023-04-16T09:36:00;16.90;65.80
42145;DHT22;27813;43.516;11.890;2023-04-16T09:40:10;16.70;64.70
42145;DHT22;27813;43.516;11.890;2023-04-16T09:44:14;16.40;64.30
42145;DHT22;27813;43.516;11.890;2023-04-16T09:48:30;16.30;64.70
42145;DHT22;27813;43.516;11.890;2023-04-16T09:52:37;16.20;64.70
42145;DHT22;27813;43.516;11.890;2023-04-16T09:56:45;16.50;64.30
42145;DHT22;27813;43.516;11.890;2023-04-16T10:01:29;16.70;63.50
42145;DHT22;27813;43.516;11.890;2023-04-16T10:05:35;16.90;63.50
42145;DHT22;27813;43.516;11.890;2023-04-16T10:09:39;17.10;64.90
42145;DHT22;27813;43.516;11.890;2023-04-16T10:13:44;17.00;62.30
42145;DHT22;27813;43.516;11.890;2023-04-16T10:17:50;16.90;63.60
42145;DHT22;27813;43.516;11.890;2023-04-16T10:21:54;17.00;64.40
42145;DHT22;27813;43.516;11.890;2023-04-16T10:26:00;17.40;65.10
42145;DHT22;27813;43.516;11.890;2023-04-16T10:30:10;17.30;62.50
42145;DHT22;27813;43.516;11.890;2023-04-16T10:34:19;17.00;62.40
42145;DHT22;27813;43.516;11.890;2023-04-16T10:38:26;16.60;62.00
42145;DHT22;27813;43.516;11.890;2023-04-16T10:42:30;16.20;62.10
42145;DHT22;27813;43.516;11.890;2023-04-16T10:46:39;16.10;62.80
42145;DHT22;27813;43.516;11.890;2023-04-16T10:50:57;16.10;62.30
42145;DHT22;27813;43.516;11.890;2023-04-16T10:55:01;16.00;62.60
42145;DHT22;27813;43.516;11.890;2023-04-16T10:59:07;15.90;62.50
42145;DHT22;27813;43.516;11.890;2023-04-16T11:03:15;15.80;62.30
42145;DHT22;27813;43.516;11.890;2023-04-16T11:07:21;15.80;62.60
42145;DHT22;27813;43.516;11.890;2023-04-16T11:11:37;16.00;62.80
42145;DHT22;27813;43.516;11.890;2023-04-16T11:15:42;16.10;62.60
42145;DHT22;27813;43.516;11.890;2023-04-16T11:19:46;16.20;62.20
42145;DHT22;27813;43.516;11.890;2023-04-16T11:23:51;16.20;60.70
42145;DHT22;27813;43.516;11.890;2023-04-16T11:27:57;16.20;59.60
42145;DHT22;27813;43.516;11.890;2023-04-16T11:32:02;16.20;60.50
42145;DHT22;27813;43.516;11.890;2023-04-16T11:36:05;16.50;60.40
42145;DHT22;27813;43.516;11.890;2023-04-16T11:40:10;16.70;59.90
42145;DHT22;27813;43.516;11.890;2023-04-16T11:44:25;16.80;59.90
42145;DHT22;27813;43.516;11.890;2023-04-16T11:48:51;16.80;59.80
42145;DHT22;27813;43.516;11.890;2023-04-16T11:53:02;16.90;59.70
42145;DHT22;27813;43.516;11.890;2023-04-16T11:57:09;17.00;58.70
42145;DHT22;27813;43.516;11.890;2023-04-16T12:01:19;17.00;55.10
42145;DHT22;27813;43.516;11.890;2023-04-16T12:05:37;17.00;55.00
42145;DHT22;27813;43.516;11.890;2023-04-16T12:09:43;17.20;54.70
42145;DHT22;27813;43.516;11.890;2023-04-16T12:14:09;17.20;53.70
42145;DHT22;27813;43.516;11.890;2023-04-16T12:18:14;17.10;53.30
42145;DHT22;27813;43.516;11.890;2023-04-16T12:22:26;17.10;53.20
42145;DHT22;27813;43.516;11.890;2023-04-16T12:26:41;17.20;53.30
42145;DHT22;27813;43.516;11.890;2023-04-16T12:30:50;17.20;53.00
42145;DHT22;27813;43.516;11.890;2023-04-16T12:34:54;17.40;53.40
42145;DHT22;27813;43.516;11.890;2023-04-16T12:38:58;17.40;52.30
42145;DHT22;27813;43.516;11.890;2023-04-16T12:43:02;17.50;52.10
42145;DHT22;27813;43.516;11.890;2023-04-16T12:47:06;17.40;51.90
42145;DHT22;27813;43.516;11.890;2023-04-16T12:51:10;17.30;51.20
42145;DHT22;27813;43.516;11.890;2023-04-16T12:55:14;17.20;51.20
42145;DHT22;27813;43.516;11.890;2023-04-16T12:59:18;17.20;51.30
42145;DHT22;27813;43.516;11.890;2023-04-16T13:03:22;17.20;50.90
42145;DHT22;27813;43.516;11.890;2023-04-16T13:12:03;17.30;50.80
42145;DHT22;27813;43.516;11.890;2023-04-16T13:16:08;17.30;50.00
42145;DHT22;27813;43.516;11.890;2023-04-16T13:20:12;17.30;50.20
42145;DHT22;27813;43.516;11.890;2023-04-16T13:24:16;17.30;50.00
42145;DHT22;27813;43.516;11.890;2023-04-16T13:28:19;17.20;49.90
42145;DHT22;27813;43.516;11.890;2023-04-16T13:32:24;17.10;49.20
42145;DHT22;27813;43.516;11.890;2023-04-16T13:36:28;17.00;49.70
42145;DHT22;27813;43.516;11.890;2023-04-16T13:40:33;17.00;50.20
42145;DHT22;27813;43.516;11.890;2023-04-16T13:44:37;17.10;50.30
42145;DHT22;27813;43.516;11.890;2023-04-16T13:48:41;17.10;49.70
42145;DHT22;27813;43.516;11.890;2023-04-16T13:52:45;17.10;49.70
42145;DHT22;27813;43.516;11.890;2023-04-16T13:56:49;17.10;50.00
42145;DHT22;27813;43.516;11.890;2023-04-16T14:00:53;17.20;50.00
42145;DHT22;27813;43.516;11.890;2023-04-16T14:04:58;17.10;48.80
42145;DHT22;27813;43.516;11.890;2023-04-16T14:09:02;17.00;48.90
42145;DHT22;27813;43.516;11.890;2023-04-16T14:13:06;17.00;48.70
42145;DHT22;27813;43.516;11.890;2023-04-16T14:17:10;17.00;48.70
42145;DHT22;27813;43.516;11.890;2023-04-16T14:21:17;17.00;49.00
42145;DHT22;27813;43.516;11.890;2023-04-16T14:25:24;17.00;49.10
42145;DHT22;27813;43.516;11.890;2023-04-16T14:29:29;17.00;48.20
42145;DHT22;27813;43.516;11.890;2023-04-16T14:33:33;16.80;47.90
42145;DHT22;27813;43.516;11.890;2023-04-16T14:37:37;16.70;48.60
42145;DHT22;27813;43.516;11.890;2023-04-16T14:41:42;16.70;49.00
42145;DHT22;27813;43.516;11.890;2023-04-16T14:45:46;16.60;48.70
42145;DHT22;27813;43.516;11.890;2023-04-16T14:49:49;16.70;48.90
42145;DHT22;27813;43.516;11.890;2023-04-16T14:53:53;16.70;48.90
42145;DHT22;27813;43.516;11.890;2023-04-16T14:57:59;16.60;49.10
42145;DHT22;27813;43.516;11.890;2023-04-16T15:02:04;16.50;49.10
42145;DHT22;27813;43.516;11.890;2023-04-16T15:06:09;16.30;49.80
42145;DHT22;27813;43.516;11.890;2023-04-16T15:10:13;16.20;50.30
42145;DHT22;27813;43.516;11.890;2023-04-16T15:14:18;16.10;50.50
42145;DHT22;27813;43.516;11.890;2023-04-16T15:18:48;16.10;50.80
42145;DHT22;27813;43.516;11.890;2023-04-16T15:22:53;16.00;51.10
42145;DHT22;27813;43.516;11.890;2023-04-16T15:26:57;15.80;51.20
42145;DHT22;27813;43.516;11.890;2023-04-16T15:31:02;15.50;51.90
42145;DHT22;27813;43.516;11.890;2023-04-16T15:35:07;15.30;52.10
42145;DHT22;27813;43.516;11.890;2023-04-16T15:39:15;15.20;52.30
42145;DHT22;27813;43.516;11.890;2023-04-16T15:43:20;15.00;52.50
42145;DHT22;27813;43.516;11.890;2023-04-16T15:47:25;15.00;53.00
42145;DHT22;27813;43.516;11.890;2023-04-16T15:51:34;15.00;52.90
42145;DHT22;27813;43.516;11.890;2023-04-16T15:55:43;15.00;52.80
42145;DHT22;27813;43.516;11.890;2023-04-16T15:59:52;15.00;52.90
42145;DHT22;27813;43.516;11.890;2023-04-16T16:04:15;15.00;52.60
42145;DHT22;27813;43.516;11.890;2023-04-16T16:08:24;14.80;52.30
42145;DHT22;27813;43.516;11.890;2023-04-16T16:12:31;14.60;52.30
42145;DHT22;27813;43.516;11.890;2023-04-16T16:16:48;14.60;52.80
42145;DHT22;27813;43.516;11.890;2023-04-16T16:35:37;14.30;53.60
42145;DHT22;27813;43.516;11.890;2023-04-16T16:39:46;13.80;54.60
42145;DHT22;27813;43.516;11.890;2023-04-16T16:43:53;13.70;55.10
42145;DHT22;27813;43.516;11.890;2023-04-16T16:48:02;13.50;55.20
42145;DHT22;27813;43.516;11.890;2023-04-16T16:52:11;13.40;55.40
42145;DHT22;27813;43.516;11.890;2023-04-16T16:56:27;13.20;55.70
42145;DHT22;27813;43.516;11.890;2023-04-16T17:00:33;13.00;56.10
42145;DHT22;27813;43.516;11.890;2023-04-16T17:04:45;12.90;56.70
42145;DHT22;27813;43.516;11.890;2023-04-16T17:08:54;12.80;57.10
42145;DHT22;27813;43.516;11.890;2023-04-16T17:13:04;12.60;57.70
42145;DHT22;27813;43.516;11.890;2023-04-16T17:17:12;12.50;57.90
42145;DHT22;27813;43.516;11.890;2023-04-16T17:21:22;12.40;58.10
42145;DHT22;27813;43.516;11.890;2023-04-16T17:25:28;12.20;58.50
42145;DHT22;27813;43.516;11.890;2023-04-16T17:29:33;12.00;59.00
42145;DHT22;27813;43.516;11.890;2023-04-16T17:33:38;11.90;59.50
42145;DHT22;27813;43.516;11.890;2023-04-16T17:37:42;11.70;60.10
42145;DHT22;27813;43.516;11.890;2023-04-16T17:41:46;11.50;60.70
42145;DHT22;27813;43.516;11.890;2023-04-16T17:45:52;11.40;61.20
42145;DHT22;27813;43.516;11.890;2023-04-16T17:49:56;11.20;61.60
42145;DHT22;27813;43.516;11.890;2023-04-16T17:54:03;11.00;62.20
42145;DHT22;27813;43.516;11.890;2023-04-16T17:58:07;10.80;62.80
42145;DHT22;27813;43.516;11.890;2023-04-16T18:02:12;10.70;63.40
42145;DHT22;27813;43.516;11.890;2023-04-16T18:06:16;10.70;63.70
42145;DHT22;27813;43.516;11.890;2023-04-16T18:10:20;10.70;64.00
42145;DHT22;27813;43.516;11.890;2023-04-16T18:14:24;10.60;64.10
42145;DHT22;27813;43.516;11.890;2023-04-16T18:18:28;10.60;64.30
42145;DHT22;27813;43.516;11.890;2023-04-16T18:22:35;10.60;64.60
42145;DHT22;27813;43.516;11.890;2023-04-16T18:26:39;10.50;65.00
42145;DHT22;27813;43.516;11.890;2023-04-16T18:30:44;10.50;65.10
42145;DHT22;27813;43.516;11.890;2023-04-16T18:34:48;10.60;65.30
42145;DHT22;27813;43.516;11.890;2023-04-16T18:38:53;10.70;65.20
42145;DHT22;27813;43.516;11.890;2023-04-16T18:43:18;10.70;65.20
42145;DHT22;27813;43.516;11.890;2023-04-16T18:47:22;10.70;65.30
42145;DHT22;27813;43.516;11.890;2023-04-16T18:51:26;10.70;65.50
42145;DHT22;27813;43.516;11.890;2023-04-16T18:55:30;10.70;65.60
42145;DHT22;27813;43.516;11.890;2023-04-16T18:59:35;10.60;65.80
42145;DHT22;27813;43.516;11.890;2023-04-16T19:03:39;10.50;66.10
42145;DHT22;27813;43.516;11.890;2023-04-16T19:07:45;10.50;66.40
42145;DHT22;27813;43.516;11.890;2023-04-16T19:11:49;10.60;66.40
42145;DHT22;27813;43.516;11.890;2023-04-16T19:15:56;10.70;66.40
42145;DHT22;27813;43.516;11.890;2023-04-16T19:20:05;10.60;66.40
42145;DHT22;27813;43.516;11.890;2023-04-16T19:24:13;10.70;66.40
42145;DHT22;27813;43.516;11.890;2023-04-16T19:28:18;10.60;66.40
42145;DHT22;27813;43.516;11.890;2023-04-16T19:32:23;10.50;66.50
42145;DHT22;27813;43.516;11.890;2023-04-16T19:36:30;10.50;66.70
42145;DHT22;27813;43.516;11.890;2023-04-16T19:40:45;10.50;66.80
42145;DHT22;27813;43.516;11.890;2023-04-16T19:44:50;10.50;66.80
42145;DHT22;27813;43.516;11.890;2023-04-16T19:48:54;10.50;66.80
42145;DHT22;27813;43.516;11.890;2023-04-16T19:52:59;10.60;66.80
42145;DHT22;27813;43.516;11.890;2023-04-16T19:57:03;10.60;66.70
42145;DHT22;27813;43.516;11.890;2023-04-16T20:01:10;10.60;66.80
42145;DHT22;27813;43.516;11.890;2023-04-16T20:05:14;10.60;66.80
42145;DHT22;27813;43.516;11.890;2023-04-16T20:09:18;10.60;66.80
42145;DHT22;27813;43.516;11.890;2023-04-16T20:13:22;10.50;66.90
42145;DHT22;27813;43.516;11.890;2023-04-16T20:17:27;10.40;67.00
42145;DHT22;27813;43.516;11.890;2023-04-16T20:21:32;10.40;67.10
42145;DHT22;27813;43.516;11.890;2023-04-16T20:25:45;10.40;67.10
42145;DHT22;27813;43.516;11.890;2023-04-16T20:29:52;10.40;67.00
42145;DHT22;27813;43.516;11.890;2023-04-16T20:33:56;10.40;67.00
42145;DHT22;27813;43.516;11.890;2023-04-16T20:38:00;10.30;67.10
42145;DHT22;27813;43.516;11.890;2023-04-16T20:42:08;10.20;67.30
42145;DHT22;27813;43.516;11.890;2023-04-16T20:46:13;10.10;67.50
42145;DHT22;27813;43.516;11.890;2023-04-16T20:50:23;10.10;67.70
42145;DHT22;27813;43.516;11.890;2023-04-16T20:54:29;10.00;67.90
42145;DHT22;27813;43.516;11.890;2023-04-16T20:58:34;9.90;68.00
42145;DHT22;27813;43.516;11.890;2023-04-16T21:02:38;9.80;68.20
42145;DHT22;27813;43.516;11.890;2023-04-16T21:06:42;9.70;68.50
42145;DHT22;27813;43.516;11.890;2023-04-16T21:10:47;9.50;69.00
42145;DHT22;27813;43.516;11.890;2023-04-16T21:14:51;9.50;69.20
42145;DHT22;27813;43.516;11.890;2023-04-16T21:18:56;9.50;69.20
42145;DHT22;27813;43.516;11.890;2023-04-16T21:23:02;9.40;69.50
42145;DHT22;27813;43.516;11.890;2023-04-16T21:27:06;9.40;69.70
42145;DHT22;27813;43.516;11.890;2023-04-16T21:31:10;9.40;69.90
42145;DHT22;27813;43.516;11.890;2023-04-16T21:35:15;9.30;70.20
42145;DHT22;27813;43.516;11.890;2023-04-16T21:39:19;9.30;70.50
42145;DHT22;27813;43.516;11.890;2023-04-16T21:43:25;9.40;70.50
42145;DHT22;27813;43.516;11.890;2023-04-16T21:47:31;9.50;70.50
42145;DHT22;27813;43.516;11.890;2023-04-16T21:51:36;9.50;70.40
42145;DHT22;27813;43.516;11.890;2023-04-16T21:55:42;9.50;70.40
42145;DHT22;27813;43.516;11.890;2023-04-16T21:59:47;9.60;70.40
42145;DHT22;27813;43.516;11.890;2023-04-16T22:03:51;9.70;70.20
42145;DHT22;27813;43.516;11.890;2023-04-16T22:07:55;9.70;70.00
42145;DHT22;27813;43.516;11.890;2023-04-16T22:11:59;9.70;70.00
42145;DHT22;27813;43.516;11.890;2023-04-16T22:16:04;9.70;70.10
42145;DHT22;27813;43.516;11.890;2023-04-16T22:20:11;9.70;70.30
42145;DHT22;27813;43.516;11.890;2023-04-16T22:24:16;9.70;70.10
42145;DHT22;27813;43.516;11.890;2023-04-16T22:28:20;9.80;70.10
42145;DHT22;27813;43.516;11.890;2023-04-16T22:32:25;9.80;69.90
42145;DHT22;27813;43.516;11.890;2023-04-16T22:36:29;9.90;69.80
42145;DHT22;27813;43.516;11.890;2023-04-16T22:40:33;9.90;69.40
42145;DHT22;27813;43.516;11.890;2023-04-16T22:44:39;9.90;69.20
42145;DHT22;27813;43.516;11.890;2023-04-16T22:48:43;9.90;69.10
42145;DHT22;27813;43.516;11.890;2023-04-16T22:52:47;9.90;69.10
42145;DHT22;27813;43.516;11.890;2023-04-16T22:56:51;9.80;69.20
42145;DHT22;27813;43.516;11.890;2023-04-16T23:00:55;9.70;69.50
42145;DHT22;27813;43.516;11.890;2023-04-16T23:05:03;9.60;69.60
42145;DHT22;27813;43.516;11.890;2023-04-16T23:09:07;9.50;69.70
42145;DHT22;27813;43.516;11.890;2023-04-16T23:13:12;9.50;69.90
42145;DHT22;27813;43.516;11.890;2023-04-16T23:17:16;9.50;69.80
42145;DHT22;27813;43.516;11.890;2023-04-16T23:21:20;9.50;69.80
42145;DHT22;27813;43.516;11.890;2023-04-16T23:25:25;9.50;69.60
42145;DHT22;27813;43.516;11.890;2023-04-16T23:29:30;9.60;69.50
